Time;durP1;ratioP1;P1;durP2;ratioP2;P2;SDS_P1;SDS_P2;PMS_P1;PMS_P2;Temp;Humidity;BMP_temperature;BMP_pressure;BME280_temperature;BME280_humidity;BME280_pressure;Samples;Min_cycle;Max_cycle;Signal;HPM_P1;HPM_P2
2023/12/24 00:01:52;;;;;;;0.22;0.13;;;;;;;26.73;81.12;100617.75;10517254;28;20127;-84
2023/12/24 00:06:54;;;;;;;0.15;0.15;;;;;;;25.61;81.73;100612.03;10467629;28;20158;-83
2023/12/24 00:11:56;;;;;;;1.55;0.55;;;;;;;26.92;79.89;100608.06;10479540;28;20059;-83
2023/12/24 00:16:58;;;;;;;0.57;0.28;;;;;;;27.02;80.79;100618.19;10479958;28;20071;-84
2023/12/24 00:22:00;;;;;;;0.10;0.10;;;;;;;26.57;79.86;100613.19;10477059;28;20380;-84
2023/12/24 00:27:01;;;;;;;0.00;0.00;;;;;;;27.38;79.21;100590.88;10476398;28;20049;-84
2023/12/24 00:32:03;;;;;;;0.00;0.00;;;;;;;26.06;78.96;100593.44;10475918;28;20048;-83
2023/12/24 00:37:05;;;;;;;0.28;0.28;;;;;;;27.19;78.38;100583.88;10476129;28;20123;-84
2023/12/24 00:42:07;;;;;;;0.32;0.32;;;;;;;26.74;79.32;100561.34;10476918;28;20051;-83
2023/12/24 00:47:09;;;;;;;0.00;0.00;;;;;;;26.36;80.18;100542.84;10457077;28;20581;-83
2023/12/24 00:52:11;;;;;;;0.20;0.20;;;;;;;25.77;79.64;100551.56;10477169;28;20044;-83
2023/12/24 00:57:14;;;;;;;0.00;0.00;;;;;;;26.07;80.45;100545.88;10477671;28;20071;-84
2023/12/24 01:02:16;;;;;;;0.10;0.00;;;;;;;26.97;79.70;100540.91;10469951;28;20044;-83
2023/12/24 01:07:18;;;;;;;0.00;0.00;;;;;;;26.79;79.40;100540.84;10474977;28;20076;-83
2023/12/24 01:12:20;;;;;;;9.93;0.35;;;;;;;27.30;79.37;100516.34;10489814;28;20048;-83
2023/12/24 01:17:21;;;;;;;0.15;0.15;;;;;;;26.06;77.56;100514.25;10461436;28;20076;-83
2023/12/24 01:22:23;;;;;;;0.08;0.08;;;;;;;26.62;77.72;100509.09;10466088;28;20433;-83
2023/12/24 01:27:27;;;;;;;0.00;0.00;;;;;;;26.66;77.92;100522.06;10458077;28;20407;-83
2023/12/24 01:32:28;;;;;;;0.68;0.65;;;;;;;26.77;77.57;100524.22;10479144;28;20894;-84
2023/12/24 01:37:31;;;;;;;0.00;0.00;;;;;;;27.62;76.79;100519.19;10474961;28;20048;-83
2023/12/24 01:42:33;;;;;;;0.00;0.00;;;;;;;27.02;77.81;100515.09;10489491;28;20105;-83
2023/12/24 01:47:34;;;;;;;0.03;0.03;;;;;;;28.33;74.93;100515.47;10467961;28;20503;-83
2023/12/24 01:52:37;;;;;;;0.00;0.00;;;;;;;27.34;76.47;100504.69;10473687;28;20048;-83
2023/12/24 01:57:39;;;;;;;0.10;0.10;;;;;;;26.15;79.19;100505.94;10473436;28;20051;-83
2023/12/24 02:02:42;;;;;;;0.38;0.03;;;;;;;26.84;76.27;100515.09;10471261;28;20063;-83
2023/12/24 02:07:44;;;;;;;0.20;0.13;;;;;;;25.32;80.70;100521.78;10462473;28;20044;-82
2023/12/24 02:12:46;;;;;;;0.28;0.20;;;;;;;26.69;79.67;100502.59;10453948;28;20132;-83
2023/12/24 02:17:49;;;;;;;0.25;0.05;;;;;;;26.62;80.21;100495.88;10471311;28;20049;-83
2023/12/24 02:22:52;;;;;;;0.00;0.00;;;;;;;25.11;83.79;100498.97;10471536;28;20048;-84
2023/12/24 02:28:17;;;;;;;0.50;0.30;;;;;;;30.24;75.35;100473.34;10497313;28;20048;-83
2023/12/24 02:33:20;;;;;;;0.30;0.22;;;;;;;27.84;77.95;100477.41;10466448;28;20583;-83
2023/12/24 02:38:22;;;;;;;0.10;0.10;;;;;;;30.45;74.43;100464.94;10453277;28;20114;-82
2023/12/24 02:43:24;;;;;;;0.05;0.03;;;;;;;29.47;77.27;100472.78;10466711;28;20143;-83
2023/12/24 02:48:26;;;;;;;0.13;0.13;;;;;;;30.58;73.55;100443.78;10469571;28;20033;-83
2023/12/24 02:53:28;;;;;;;0.32;0.30;;;;;;;30.41;77.17;100453.66;10490710;28;20044;-84
2023/12/24 02:58:30;;;;;;;0.00;0.00;;;;;;;31.08;75.10;100439.53;10472196;28;20515;-84
2023/12/24 03:03:31;;;;;;;0.15;0.15;;;;;;;30.31;76.24;100439.25;10461185;28;20159;-84
2023/12/24 03:08:33;;;;;;;0.13;0.13;;;;;;;29.74;77.97;100449.88;10461033;28;20044;-84
2023/12/24 03:13:35;;;;;;;1.00;0.60;;;;;;;29.97;76.65;100444.97;10487349;28;20568;-84
2023/12/24 03:18:37;;;;;;;0.03;0.03;;;;;;;30.43;77.17;100445.59;10482326;28;20079;-85
2023/12/24 03:23:39;;;;;;;0.30;0.20;;;;;;;28.34;76.97;100441.19;10462729;28;20052;-84
2023/12/24 03:28:40;;;;;;;0.30;0.25;;;;;;;28.50;80.87;100435.88;10480479;28;20110;-84
2023/12/24 03:33:43;;;;;;;0.05;0.05;;;;;;;29.05;80.83;100431.00;10483930;28;20041;-84
2023/12/24 03:38:45;;;;;;;0.68;0.40;;;;;;;29.18;82.80;100427.59;10479053;28;20106;-85
2023/12/24 03:43:46;;;;;;;0.00;0.00;;;;;;;27.94;82.31;100402.81;10494958;28;20044;-84
2023/12/24 03:48:48;;;;;;;0.43;0.10;;;;;;;29.95;79.46;100399.03;10475353;28;20051;-83
2023/12/24 03:53:51;;;;;;;0.30;0.22;;;;;;;29.75;79.36;100397.63;10481701;28;20467;-84
2023/12/24 03:58:53;;;;;;;0.40;0.40;;;;;;;28.77;82.85;100389.34;10482022;28;20472;-84
2023/12/24 04:03:55;;;;;;;0.35;0.35;;;;;;;30.32;80.87;100387.81;10492079;28;20068;-84
2023/12/24 04:08:57;;;;;;;0.68;0.35;;;;;;;28.83;82.34;100390.78;10469672;28;20388;-84
2023/12/24 04:13:58;;;;;;;0.25;0.25;;;;;;;31.32;78.41;100377.63;10484664;28;20111;-84
2023/12/24 04:19:01;;;;;;;0.20;0.10;;;;;;;28.61;85.06;100373.47;10454612;28;20047;-84
2023/12/24 04:24:04;;;;;;;0.10;0.10;;;;;;;30.31;79.88;100368.38;10449056;28;20101;-84
2023/12/24 04:29:06;;;;;;;0.77;0.38;;;;;;;30.66;79.04;100367.88;10466219;28;20133;-85
2023/12/24 04:34:10;;;;;;;0.52;0.20;;;;;;;30.95;79.55;100354.38;10465663;28;20045;-84
2023/12/24 04:39:12;;;;;;;1.02;0.40;;;;;;;29.60;79.67;100362.25;10467126;28;20044;-85
2023/12/24 04:44:15;;;;;;;0.10;0.10;;;;;;;28.79;82.43;100353.84;10475579;28;20040;-84
2023/12/24 04:49:17;;;;;;;0.00;0.00;;;;;;;29.87;82.99;100337.56;10460752;28;20044;-84
2023/12/24 04:54:19;;;;;;;0.30;0.08;;;;;;;31.98;79.59;100339.28;10457168;28;20048;-85
2023/12/24 04:59:21;;;;;;;0.10;0.10;;;;;;;30.71;81.04;100338.31;10470246;28;20554;-85
2023/12/24 05:04:26;;;;;;;0.13;0.13;;;;;;;31.32;78.09;100327.06;10493309;28;20044;-84
2023/12/24 05:09:28;;;;;;;0.00;0.00;;;;;;;29.96;82.45;100315.78;10492757;28;20045;-85
2023/12/24 05:14:31;;;;;;;0.15;0.10;;;;;;;28.73;84.38;100326.88;10483558;28;20051;-85
2023/12/24 05:19:34;;;;;;;0.00;0.00;;;;;;;30.46;83.74;100316.00;10477362;28;20040;-85
2023/12/24 05:24:36;;;;;;;0.00;0.00;;;;;;;29.24;83.18;100322.00;10454774;28;20056;-85
2023/12/24 05:29:40;;;;;;;0.28;0.28;;;;;;;30.25;83.21;100313.00;10458393;28;20052;-85
2023/12/24 05:34:42;;;;;;;0.30;0.30;;;;;;;30.06;83.94;100316.84;10486294;28;20135;-85
2023/12/24 05:39:44;;;;;;;0.00;0.00;;;;;;;31.12;80.11;100304.53;10476282;28;20047;-86
2023/12/24 05:44:46;;;;;;;0.10;0.10;;;;;;;32.54;78.62;100310.22;10474262;28;20136;-85
2023/12/24 05:49:48;;;;;;;0.00;0.00;;;;;;;31.29;81.68;100304.19;10476556;28;20040;-86
2023/12/24 05:54:54;;;;;;;0.00;0.00;;;;;;;30.13;79.94;100306.69;10481883;28;20048;-85
2023/12/24 05:59:56;;;;;;;0.00;0.00;;;;;;;31.73;79.77;100304.63;10475798;28;20075;-85
2023/12/24 06:04:58;;;;;;;0.00;0.00;;;;;;;30.80;80.36;100299.59;10485547;28;20048;-86
2023/12/24 06:09:59;;;;;;;0.30;0.20;;;;;;;29.70;82.73;100304.16;10475031;28;20052;-85
2023/12/24 06:15:03;;;;;;;0.20;0.00;;;;;;;32.07;80.89;100295.94;10474991;28;20123;-87
2023/12/24 06:20:05;;;;;;;0.00;0.00;;;;;;;29.91;84.13;100291.31;10463985;28;20048;-87
2023/12/24 06:25:07;;;;;;;0.00;0.00;;;;;;;30.73;81.93;100293.88;10478135;28;20874;-86
2023/12/24 06:30:10;;;;;;;0.00;0.00;;;;;;;30.43;85.16;100296.75;10494484;28;20135;-86
2023/12/24 06:35:13;;;;;;;0.00;0.00;;;;;;;29.97;84.56;100301.56;10502936;28;20048;-87
2023/12/24 06:40:15;;;;;;;0.28;0.20;;;;;;;31.09;83.32;100289.63;10484865;28;20056;-86
2023/12/24 06:45:17;;;;;;;0.00;0.00;;;;;;;31.02;82.89;100299.81;10479810;28;20072;-86
2023/12/24 06:50:20;;;;;;;0.00;0.00;;;;;;;31.38;81.39;100291.19;10481645;28;20137;-85
2023/12/24 06:55:22;;;;;;;0.00;0.00;;;;;;;30.45;83.01;100281.56;10493658;28;20530;-86
2023/12/24 07:00:24;;;;;;;0.10;0.00;;;;;;;31.98;81.24;100275.34;10495789;28;20066;-84
2023/12/24 07:05:33;;;;;;;0.10;0.10;;;;;;;30.74;82.23;100281.41;10494469;28;20673;-86
2023/12/24 07:10:36;;;;;;;0.00;0.00;;;;;;;31.18;81.76;100277.47;10500481;28;20056;-86
2023/12/24 07:15:39;;;;;;;0.00;0.00;;;;;;;30.80;82.62;100273.88;10473871;28;20131;-87
2023/12/24 07:20:41;;;;;;;0.00;0.00;;;;;;;31.54;82.65;100267.81;10495784;28;20156;-87
2023/12/24 07:25:44;;;;;;;0.52;0.10;;;;;;;30.64;83.28;100267.91;10499184;28;20114;-87
2023/12/24 07:30:46;;;;;;;0.00;0.00;;;;;;;29.76;84.54;100272.75;10487872;28;20654;-86
2023/12/24 07:35:48;;;;;;;0.32;0.05;;;;;;;29.86;86.00;100261.53;10491183;28;20142;-87
2023/12/24 07:40:50;;;;;;;0.00;0.00;;;;;;;28.79;87.13;100266.38;10473069;28;20065;-86
2023/12/24 07:45:52;;;;;;;0.00;0.00;;;;;;;29.28;84.85;100269.59;10503836;28;20041;-86
2023/12/24 07:50:54;;;;;;;0.00;0.00;;;;;;;29.73;85.80;100256.16;10490004;28;20090;-87
2023/12/24 07:55:56;;;;;;;0.00;0.00;;;;;;;30.32;86.74;100265.59;10500134;28;20048;-87
2023/12/24 08:00:58;;;;;;;0.00;0.00;;;;;;;30.02;87.02;100259.59;10470900;28;20044;-87
2023/12/24 08:06:00;;;;;;;0.00;0.00;;;;;;;28.00;93.89;100267.44;10471501;28;20049;-86
2023/12/24 08:11:02;;;;;;;0.10;0.10;;;;;;;28.73;91.28;100271.22;10481085;28;20487;-87
2023/12/24 08:16:17;;;;;;;0.10;0.10;;;;;;;27.34;92.46;100278.09;10484811;28;20139;-87
2023/12/24 08:21:18;;;;;;;0.00;0.00;;;;;;;27.23;98.59;100265.47;10478580;28;20083;-87
2023/12/24 08:26:20;;;;;;;0.05;0.00;;;;;;;28.78;96.37;100269.13;10494064;28;20571;-87
2023/12/24 08:31:22;;;;;;;0.00;0.00;;;;;;;30.27;91.48;100263.25;10497009;28;20074;-86
2023/12/24 08:36:24;;;;;;;0.00;0.00;;;;;;;30.83;89.41;100251.53;10482843;28;20483;-88
2023/12/24 08:41:26;;;;;;;0.00;0.00;;;;;;;30.47;89.19;100250.44;10479109;28;20079;-87
2023/12/24 08:46:28;;;;;;;0.00;0.00;;;;;;;30.18;90.22;100247.94;10496725;28;20037;-88
2023/12/24 08:51:29;;;;;;;0.10;0.00;;;;;;;29.74;94.41;100250.78;10480230;28;20102;-87
2023/12/24 08:56:34;;;;;;;0.00;0.00;;;;;;;29.92;90.45;100266.47;10476019;28;20055;-87
2023/12/24 09:01:41;;;;;;;0.10;0.10;;;;;;;27.96;93.46;100271.22;10485406;28;20044;-87
2023/12/24 09:06:43;;;;;;;0.00;0.00;;;;;;;30.49;90.58;100253.84;10502142;28;20066;-88
2023/12/24 09:11:47;;;;;;;0.00;0.00;;;;;;;31.07;88.92;100248.09;10477749;28;20045;-86
2023/12/24 09:16:49;;;;;;;0.00;0.00;;;;;;;29.57;91.91;100266.94;10460461;28;20143;-87
2023/12/24 09:21:51;;;;;;;0.25;0.20;;;;;;;30.72;88.14;100259.41;10461138;28;20048;-86
2023/12/24 09:26:53;;;;;;;0.00;0.00;;;;;;;30.40;89.61;100268.59;10493272;28;20068;-87
2023/12/24 09:31:54;;;;;;;0.00;0.00;;;;;;;29.75;90.83;100257.75;10494651;28;20131;-87
2023/12/24 09:36:56;;;;;;;0.00;0.00;;;;;;;30.42;89.34;100257.88;10462096;28;20060;-87
2023/12/24 09:41:58;;;;;;;0.10;0.10;;;;;;;29.29;90.96;100256.22;10476532;28;20098;-87
2023/12/24 09:47:00;;;;;;;0.00;0.00;;;;;;;29.46;92.08;100250.81;10476048;28;20136;-87
2023/12/24 09:52:02;;;;;;;0.10;0.10;;;;;;;30.68;88.07;100243.66;10466709;28;20076;-87
2023/12/24 09:57:04;;;;;;;0.00;0.00;;;;;;;30.05;90.87;100234.63;10451954;28;20052;-87
2023/12/24 10:02:06;;;;;;;0.00;0.00;;;;;;;28.45;93.62;100238.38;10478287;28;20036;-87
2023/12/24 10:07:09;;;;;;;0.00;0.00;;;;;;;29.34;92.67;100224.13;10474307;28;20040;-87
2023/12/24 10:12:11;;;;;;;0.00;0.00;;;;;;;30.15;91.45;100218.94;10481025;28;20055;-86
2023/12/24 10:17:13;;;;;;;0.00;0.00;;;;;;;31.12;87.88;100216.72;10475741;28;20040;-86
2023/12/24 10:22:16;;;;;;;0.00;0.00;;;;;;;30.91;89.31;100216.41;10487203;28;20055;-86
2023/12/24 10:27:19;;;;;;;0.00;0.00;;;;;;;28.55;94.44;100231.59;10495265;28;20389;-86
2023/12/24 10:32:24;;;;;;;0.13;0.00;;;;;;;29.68;92.92;100253.78;10494466;28;20056;-88
2023/12/24 10:37:27;;;;;;;0.05;0.05;;;;;;;29.66;92.66;100258.38;10474915;28;20094;-87
2023/12/24 10:42:28;;;;;;;0.40;0.00;;;;;;;31.80;88.12;100249.94;10475498;28;20040;-86
2023/12/24 10:47:30;;;;;;;0.20;0.00;;;;;;;30.43;89.91;100246.28;10475272;28;20041;-88
2023/12/24 10:52:32;;;;;;;0.00;0.00;;;;;;;29.64;91.79;100252.31;10498706;28;20101;-89
2023/12/24 10:58:11;;;;;;;0.30;0.22;;;;;;;30.99;89.78;100230.88;10475441;28;20111;-87
2023/12/24 11:03:45;;;;;;;1.88;0.32;;;;;;;30.36;92.63;100222.78;10482625;28;20041;-88
2023/12/24 11:08:47;;;;;;;0.30;0.22;;;;;;;31.28;88.37;100213.81;10470177;28;20036;-86
2023/12/24 11:13:48;;;;;;;3.20;0.15;;;;;;;31.15;90.37;100208.53;10495269;28;20403;-87
2023/12/24 11:18:56;;;;;;;0.40;0.20;;;;;;;32.04;88.26;100200.28;10490559;28;20049;-87
2023/12/24 11:24:07;;;;;;;0.45;0.32;;;;;;;31.62;89.70;100203.38;10487563;28;20062;-87
2023/12/24 11:29:42;;;;;;;1.30;0.77;;;;;;;30.45;92.96;100167.31;10481372;28;20044;-88
2023/12/24 11:34:44;;;;;;;0.40;0.40;;;;;;;29.52;93.34;100146.97;10495094;28;20083;-87
2023/12/24 11:40:04;;;;;;;5.82;0.43;;;;;;;29.11;95.66;100130.94;10486310;28;20816;-87
2023/12/24 11:45:06;;;;;;;;;;;;;;;29.28;96.76;100145.75;10489558;28;20052;-88
2023/12/24 11:50:12;;;;;;;0.10;0.10;;;;;;;29.69;94.71;100144.03;10485502;28;19921;-85
2023/12/24 11:55:15;;;;;;;1.95;0.40;;;;;;;29.95;93.76;100146.78;10487713;28;20047;-86
2023/12/24 12:00:26;;;;;;;1.00;0.52;;;;;;;32.38;91.42;100123.09;10461031;28;20043;-86
2023/12/24 12:05:29;;;;;;;0.20;0.20;;;;;;;30.65;93.14;100126.91;10473908;28;20052;-85
2023/12/24 12:10:33;;;;;;;0.82;0.32;;;;;;;31.02;91.43;100134.91;10488198;28;20041;-86
2023/12/24 12:15:35;;;;;;;1.17;0.57;;;;;;;31.82;88.36;100122.03;10483051;28;20032;-86
2023/12/24 12:20:39;;;;;;;0.40;0.22;;;;;;;30.63;91.79;100123.53;10479035;28;20094;-86
2023/12/24 12:25:42;;;;;;;0.45;0.43;;;;;;;30.29;93.20;100112.56;10477295;28;20083;-87
2023/12/24 12:30:45;;;;;;;0.90;0.47;;;;;;;30.66;93.13;100102.03;10462817;28;20171;-87
2023/12/24 12:35:48;;;;;;;0.52;0.10;;;;;;;30.84;91.65;100107.00;10496684;28;20127;-86
2023/12/24 12:40:51;;;;;;;0.00;0.00;;;;;;;31.88;90.81;100086.06;10504106;28;20093;-86
2023/12/24 12:45:54;;;;;;;4.15;2.03;;;;;;;30.19;94.14;100079.66;10503176;28;20437;-89
2023/12/24 12:50:56;;;;;;;0.00;0.00;;;;;;;31.30;91.42;100074.38;10480706;28;20185;-88
2023/12/24 12:56:02;;;;;;;1.02;0.55;;;;;;;31.78;89.81;100067.28;10481101;28;20047;-88
2023/12/24 13:01:05;;;;;;;0.13;0.10;;;;;;;30.33;92.64;100063.59;10479951;28;20048;-89
2023/12/24 13:06:11;;;;;;;0.10;0.10;;;;;;;29.90;95.21;100066.53;10480279;28;20044;-88
2023/12/24 13:11:14;;;;;;;0.55;0.15;;;;;;;31.83;89.40;100059.81;10494133;28;20058;-86
2023/12/24 13:16:21;;;;;;;0.00;0.00;;;;;;;31.15;92.93;100051.59;10468243;28;20044;-86
2023/12/24 13:21:23;;;;;;;0.00;0.00;;;;;;;30.52;93.10;100056.97;10498806;28;20123;-88
2023/12/24 13:26:25;;;;;;;0.00;0.00;;;;;;;30.44;91.23;100051.31;10521220;28;20033;-87
2023/12/24 13:31:27;;;;;;;0.00;0.00;;;;;;;31.24;89.65;100053.53;10499855;28;20068;-87
2023/12/24 13:36:30;;;;;;;0.47;0.30;;;;;;;32.65;86.96;100049.88;10482954;28;20075;-87
2023/12/24 13:41:32;;;;;;;0.25;0.10;;;;;;;30.78;91.53;100057.75;10513032;28;20048;-86
2023/12/24 13:46:39;;;;;;;0.03;0.00;;;;;;;32.49;88.71;100043.13;10485264;28;20506;-86
2023/12/24 13:51:41;;;;;;;0.17;0.00;;;;;;;32.45;88.51;100039.00;10463109;28;20056;-86
2023/12/24 13:56:43;;;;;;;0.00;0.00;;;;;;;30.33;91.84;100041.47;10496882;28;20041;-86
2023/12/24 14:01:45;;;;;;;0.22;0.10;;;;;;;31.04;92.07;100024.88;10485256;28;20048;-87
2023/12/24 14:06:48;;;;;;;0.15;0.08;;;;;;;30.10;92.49;100014.72;10478138;28;20414;-87
2023/12/24 14:11:50;;;;;;;0.00;0.00;;;;;;;31.22;92.67;100004.06;10470877;28;20059;-86
2023/12/24 14:16:52;;;;;;;0.15;0.03;;;;;;;30.78;95.11;99998.44;10485395;28;20044;-88
2023/12/24 14:21:54;;;;;;;0.20;0.20;;;;;;;29.87;97.35;99984.44;10476428;28;20453;-88
2023/12/24 14:26:56;;;;;;;0.03;0.03;;;;;;;30.92;96.92;99969.00;10493316;28;20044;-88
2023/12/24 14:31:58;;;;;;;0.22;0.22;;;;;;;30.80;94.56;99969.91;10492494;28;20126;-88
2023/12/24 14:37:02;;;;;;;0.20;0.20;;;;;;;31.23;95.35;99972.03;10471088;28;20032;-88
2023/12/24 14:42:10;;;;;;;3.55;0.75;;;;;;;30.86;93.98;99975.63;10471903;28;20118;-88
2023/12/24 14:47:17;;;;;;;0.15;0.15;;;;;;;29.90;96.91;99957.66;10454696;28;20044;-87
2023/12/24 14:52:20;;;;;;;0.45;0.28;;;;;;;31.40;94.27;99965.44;10473881;28;20421;-88
2023/12/24 14:57:24;;;;;;;0.17;0.10;;;;;;;30.30;95.63;99976.13;10480544;28;20055;-87
2023/12/24 15:02:28;;;;;;;0.20;0.20;;;;;;;30.99;95.86;99961.41;10484272;28;20055;-86
2023/12/24 15:07:33;;;;;;;0.15;0.10;;;;;;;30.05;93.33;99969.88;10482266;28;20040;-86
2023/12/24 15:12:35;;;;;;;1.00;0.95;;;;;;;30.12;96.94;99980.09;10505142;28;20044;-86
2023/12/24 15:17:37;;;;;;;0.47;0.25;;;;;;;35.04;87.35;99988.50;10498652;28;20052;-86
2023/12/24 15:22:39;;;;;;;0.25;0.17;;;;;;;34.08;86.29;99986.31;10485156;28;20052;-86
2023/12/24 15:27:42;;;;;;;1.60;0.98;;;;;;;33.63;90.29;99975.97;10493356;28;20105;-86
2023/12/24 15:32:44;;;;;;;1.75;0.10;;;;;;;31.44;100.00;99984.66;10484655;28;20094;-87
2023/12/24 15:37:46;;;;;;;0.03;0.03;;;;;;;33.32;98.76;99983.97;10477732;28;20036;-85
2023/12/24 15:42:48;;;;;;;0.00;0.00;;;;;;;32.65;94.42;99996.56;10480245;28;20041;-85
2023/12/24 15:47:51;;;;;;;0.17;0.10;;;;;;;32.78;96.66;100001.75;10476113;28;20033;-85
2023/12/24 15:52:53;;;;;;;0.55;0.25;;;;;;;33.14;96.46;99997.84;10521833;28;20134;-85
2023/12/24 15:57:55;;;;;;;7.22;0.20;;;;;;;31.57;98.79;100009.38;10471922;28;20047;-86
2023/12/24 16:02:57;;;;;;;0.45;0.20;;;;;;;32.22;100.00;100000.88;10509730;28;20055;-86
2023/12/24 16:07:59;;;;;;;0.25;0.22;;;;;;;32.24;96.74;99994.44;10478081;28;20494;-86
2023/12/24 16:13:01;;;;;;;0.00;0.00;;;;;;;33.10;93.05;100012.41;10463408;28;20406;-85
2023/12/24 16:18:03;;;;;;;0.52;0.28;;;;;;;31.34;100.00;99995.16;10477458;28;20037;-87
2023/12/24 16:23:05;;;;;;;0.10;0.10;;;;;;;29.40;100.00;99990.25;10472738;28;20136;-87
2023/12/24 16:28:07;;;;;;;0.00;0.00;;;;;;;29.41;100.00;100007.06;10487974;28;20033;-86
2023/12/24 16:33:09;;;;;;;0.20;0.10;;;;;;;31.64;100.00;99994.63;10480807;28;20056;-86
2023/12/24 16:38:11;;;;;;;0.32;0.10;;;;;;;30.64;100.00;100041.97;10498061;28;20040;-86
2023/12/24 16:43:13;;;;;;;0.00;0.00;;;;;;;29.79;100.00;100026.59;10480127;28;20048;-86
2023/12/24 16:48:15;;;;;;;0.03;0.00;;;;;;;30.86;100.00;100054.56;10482799;28;20060;-87
2023/12/24 16:53:17;;;;;;;0.35;0.28;;;;;;;29.26;100.00;100040.72;10510463;28;20420;-86
2023/12/24 16:58:18;;;;;;;0.00;0.00;;;;;;;31.86;100.00;100064.88;10478036;28;20058;-86
2023/12/24 17:03:20;;;;;;;0.47;0.20;;;;;;;30.95;100.00;100091.09;10473183;28;20552;-86
2023/12/24 17:08:22;;;;;;;0.20;0.20;;;;;;;31.76;99.39;100085.22;10480608;28;20105;-86
2023/12/24 17:13:24;;;;;;;0.00;0.00;;;;;;;31.21;98.31;100085.72;10475390;28;20044;-86
2023/12/24 17:18:25;;;;;;;0.10;0.10;;;;;;;29.83;100.00;100091.78;10474198;28;20060;-87
2023/12/24 17:23:28;;;;;;;0.00;0.00;;;;;;;29.82;100.00;100109.53;10482308;28;20090;-85
2023/12/24 17:28:30;;;;;;;0.10;0.10;;;;;;;30.73;100.00;100112.22;10496638;28;20098;-86
2023/12/24 17:33:31;;;;;;;0.20;0.20;;;;;;;31.02;97.38;100113.63;10465417;28;20052;-86
2023/12/24 17:38:34;;;;;;;0.10;0.08;;;;;;;31.23;96.48;100110.41;10475095;28;20048;-86
2023/12/24 17:43:36;;;;;;;0.35;0.32;;;;;;;31.30;95.39;100116.97;10479620;28;20566;-86
2023/12/24 17:48:38;;;;;;;0.17;0.08;;;;;;;31.99;91.73;100095.88;10464106;28;20094;-86
2023/12/24 17:53:40;;;;;;;0.43;0.17;;;;;;;31.80;91.86;100134.59;10479929;28;20110;-86
2023/12/24 17:58:41;;;;;;;1.88;0.50;;;;;;;32.08;92.04;100129.81;10473013;28;20060;-85
2023/12/24 18:03:43;;;;;;;0.15;0.15;;;;;;;30.68;92.65;100132.00;10481793;28;20139;-85
2023/12/24 18:08:45;;;;;;;0.08;0.08;;;;;;;32.56;90.00;100148.31;10465937;28;20048;-85
2023/12/24 18:13:47;;;;;;;0.25;0.10;;;;;;;33.07;87.99;100156.75;10462308;28;20705;-84
2023/12/24 18:18:49;;;;;;;0.22;0.15;;;;;;;33.57;87.54;100168.78;10491052;28;20047;-85
2023/12/24 18:23:51;;;;;;;0.57;0.50;;;;;;;31.84;90.43;100183.97;10508430;28;20052;-85
2023/12/24 18:28:53;;;;;;;4.38;0.63;;;;;;;32.84;89.01;100188.81;10476662;28;20333;-85
2023/12/24 18:33:55;;;;;;;0.15;0.15;;;;;;;31.56;90.22;100201.16;10489494;28;20131;-85
2023/12/24 18:38:57;;;;;;;0.05;0.05;;;;;;;32.79;89.23;100190.13;10515083;28;20475;-85
2023/12/24 18:43:59;;;;;;;0.35;0.35;;;;;;;31.45;89.84;100193.97;10487314;28;20051;-86
2023/12/24 18:49:01;;;;;;;0.73;0.70;;;;;;;32.86;89.53;100181.53;10503966;28;20037;-86
2023/12/24 18:54:03;;;;;;;0.35;0.32;;;;;;;30.71;92.58;100173.47;10484256;28;20073;-85
2023/12/24 18:59:05;;;;;;;1.85;0.32;;;;;;;32.64;87.58;100186.84;10505401;28;20041;-85
2023/12/24 19:04:08;;;;;;;0.70;0.30;;;;;;;32.52;86.75;100200.16;10506616;28;20037;-85
2023/12/24 19:09:10;;;;;;;0.10;0.10;;;;;;;32.98;86.46;100205.53;10488576;28;20072;-84
2023/12/24 19:14:12;;;;;;;0.28;0.17;;;;;;;31.69;87.60;100207.31;10523732;28;20040;-84
2023/12/24 19:19:14;;;;;;;0.10;0.10;;;;;;;32.22;87.10;100203.41;10486876;28;20054;-84
2023/12/24 19:24:21;;;;;;;0.00;0.00;;;;;;;32.99;85.84;100207.22;10481123;28;20068;-85
2023/12/24 19:29:23;;;;;;;0.40;0.32;;;;;;;31.61;86.69;100206.97;10488142;28;20041;-85
2023/12/24 19:34:25;;;;;;;0.90;0.82;;;;;;;31.49;87.33;100216.72;10488430;28;20044;-84
2023/12/24 19:39:27;;;;;;;0.40;0.20;;;;;;;30.78;86.49;100200.50;10487519;28;20072;-84
2023/12/24 19:44:29;;;;;;;0.45;0.30;;;;;;;31.70;86.35;100208.13;10519113;28;20048;-85
2023/12/24 19:49:35;;;;;;;0.38;0.20;;;;;;;29.48;88.41;100193.22;10488414;28;20041;-84
2023/12/24 19:54:37;;;;;;;0.10;0.10;;;;;;;31.18;88.26;100197.66;10505853;28;20036;-84
2023/12/24 19:59:39;;;;;;;0.32;0.25;;;;;;;29.68;89.36;100216.63;10487511;28;20118;-84
2023/12/24 20:04:41;;;;;;;1.85;0.55;;;;;;;32.33;85.56;100226.56;10481559;28;20411;-85
2023/12/24 20:09:43;;;;;;;0.00;0.00;;;;;;;31.79;85.64;100223.44;10508717;28;20036;-86
2023/12/24 20:14:44;;;;;;;0.65;0.45;;;;;;;31.62;86.83;100227.31;10479328;28;20080;-86
2023/12/24 20:19:47;;;;;;;0.68;0.38;;;;;;;31.85;85.33;100249.59;10479271;28;20080;-85
2023/12/24 20:24:49;;;;;;;0.15;0.15;;;;;;;32.87;84.69;100252.59;10488061;28;20508;-85
2023/12/24 20:29:51;;;;;;;0.10;0.10;;;;;;;32.71;84.03;100255.56;10480755;28;20116;-85
2023/12/24 20:34:53;;;;;;;0.40;0.30;;;;;;;32.17;83.06;100257.00;10479059;28;20048;-85
2023/12/24 20:39:55;;;;;;;13.90;0.45;;;;;;;32.34;83.59;100246.91;10478001;28;20044;-85
2023/12/24 20:44:56;;;;;;;2.60;1.48;;;;;;;32.46;84.47;100237.13;10486388;28;20059;-84
2023/12/24 20:49:58;;;;;;;1.77;0.30;;;;;;;31.37;84.62;100274.34;10474742;28;20040;-85
2023/12/24 20:55:00;;;;;;;0.45;0.43;;;;;;;31.68;84.62;100264.19;10487427;28;20078;-85
2023/12/24 21:00:04;;;;;;;3.38;0.10;;;;;;;31.67;85.35;100245.66;10486234;28;20123;-85
2023/12/24 21:05:07;;;;;;;5.28;1.38;;;;;;;31.96;83.93;100268.31;10520796;28;20097;-85
2023/12/24 21:10:09;;;;;;;0.88;0.30;;;;;;;31.90;83.56;100278.56;10486281;28;20483;-85
2023/12/24 21:15:11;;;;;;;3.35;1.15;;;;;;;31.60;83.09;100264.72;10477872;28;20033;-84
2023/12/24 21:20:13;;;;;;;0.63;0.25;;;;;;;32.71;82.22;100268.06;10501333;28;20036;-85
2023/12/24 21:25:17;;;;;;;0.77;0.10;;;;;;;31.69;83.96;100280.97;10510724;28;20048;-85
2023/12/24 21:30:19;;;;;;;1.27;0.52;;;;;;;32.51;82.98;100267.78;10481731;28;20068;-85
2023/12/24 21:35:20;;;;;;;0.57;0.50;;;;;;;32.45;82.93;100273.59;10480974;28;20063;-84
2023/12/24 21:40:23;;;;;;;0.43;0.20;;;;;;;31.44;85.17;100282.75;10493905;28;20048;-85
2023/12/24 21:45:24;;;;;;;0.10;0.10;;;;;;;33.42;84.36;100289.22;10490444;28;20050;-84
2023/12/24 21:50:26;;;;;;;0.00;0.00;;;;;;;32.47;83.72;100298.31;10476209;28;20048;-85
2023/12/24 21:55:28;;;;;;;2.50;1.85;;;;;;;32.92;82.93;100291.38;10465509;28;20048;-84
2023/12/24 22:00:33;;;;;;;2.13;1.45;;;;;;;32.99;82.56;100281.94;10504251;28;20066;-85
2023/12/24 22:05:49;;;;;;;0.10;0.10;;;;;;;34.29;81.32;100276.81;10471885;28;20040;-85
2023/12/24 22:10:51;;;;;;;0.73;0.65;;;;;;;32.23;83.23;100269.88;10490068;28;20048;-84
2023/12/24 22:15:53;;;;;;;0.00;0.00;;;;;;;32.38;82.03;100251.03;10477891;28;20097;-84
2023/12/24 22:20:55;;;;;;;0.10;0.00;;;;;;;31.24;82.77;100274.38;10479249;28;20044;-85
2023/12/24 22:25:57;;;;;;;0.10;0.05;;;;;;;32.79;81.90;100292.34;10479460;28;20059;-84
2023/12/24 22:30:59;;;;;;;7.03;0.30;;;;;;;31.99;82.48;100288.53;10477885;28;20036;-85
2023/12/24 22:36:01;;;;;;;0.00;0.00;;;;;;;31.89;82.69;100306.16;10481149;28;20044;-84
2023/12/24 22:41:03;;;;;;;0.10;0.10;;;;;;;32.09;83.40;100318.00;10474801;28;20036;-84
2023/12/24 22:46:06;;;;;;;0.10;0.10;;;;;;;31.90;84.55;100316.72;10507911;28;20379;-84
2023/12/24 22:51:09;;;;;;;0.30;0.10;;;;;;;33.96;80.41;100308.06;10493813;28;20495;-84
2023/12/24 22:56:11;;;;;;;0.10;0.10;;;;;;;35.30;78.42;100309.22;10479897;28;20040;-85
2023/12/24 23:01:12;;;;;;;0.10;0.10;;;;;;;32.87;82.16;100321.94;10494063;28;20037;-84
2023/12/24 23:06:14;;;;;;;0.15;0.15;;;;;;;32.45;82.87;100304.72;10510356;28;20418;-84
2023/12/24 23:11:16;;;;;;;1.15;0.10;;;;;;;32.60;83.76;100300.91;10476141;28;20048;-84